Time;durP1;ratioP1;P1;durP2;ratioP2;P2;SDS_P1;SDS_P2;PMS_P1;PMS_P2;Temp;Humidity;BMP_temperature;BMP_pressure;BME280_temperature;BME280_humidity;BME280_pressure;Samples;Min_cycle;Max_cycle;Signal;HPM_P1;HPM_P2
2022/09/30 00:01:46;;;;;;;3.15;2.30;;;10.40;62.30;;;;;;4991342;28;20101;-44
2022/09/30 00:04:16;;;;;;;3.00;2.38;;;10.40;62.30;;;;;;4981696;28;20046;-44
2022/09/30 00:06:43;;;;;;;4.55;2.80;;;10.40;62.40;;;;;;4983050;28;20045;-45
2022/09/30 00:09:12;;;;;;;4.30;2.80;;;10.40;62.40;;;;;;4989308;28;20096;-45
2022/09/30 00:11:41;;;;;;;3.72;2.85;;;10.30;62.40;;;;;;4971739;28;20062;-44
2022/09/30 00:14:16;;;;;;;5.45;2.22;;;10.30;62.40;;;;;;4974985;28;20555;-45
2022/09/30 00:16:46;;;;;;;2.80;2.20;;;10.30;62.50;;;;;;4964319;28;20049;-45
2022/09/30 00:19:13;;;;;;;3.20;2.38;;;10.20;62.40;;;;;;4990794;28;20416;-44
2022/09/30 00:21:40;;;;;;;7.50;2.83;;;10.20;62.40;;;;;;4985307;28;20464;-45
2022/09/30 00:24:09;;;;;;;3.25;2.70;;;10.20;62.50;;;;;;4978787;28;20097;-46
2022/09/30 00:26:36;;;;;;;4.15;2.60;;;10.20;62.50;;;;;;4982490;28;20546;-44
2022/09/30 00:29:03;;;;;;;2.97;2.67;;;10.10;62.40;;;;;;4972079;28;20059;-45
2022/09/30 00:31:32;;;;;;;3.97;3.05;;;10.10;62.50;;;;;;4973824;28;20063;-45
2022/09/30 00:34:05;;;;;;;4.35;2.47;;;10.10;62.60;;;;;;4977842;28;20051;-45
2022/09/30 00:36:44;;;;;;;3.88;2.88;;;10.10;62.60;;;;;;4982215;28;20077;-43
2022/09/30 00:39:28;;;;;;;;;;;;;;;;;;;;;
2022/09/30 00:41:58;;;;;;;3.10;2.80;;;10.00;62.80;;;;;;4976977;28;20438;-44
2022/09/30 00:44:43;;;;;;;3.10;2.80;;;10.00;62.70;;;;;;4984532;28;20046;-44
2022/09/30 00:47:31;;;;;;;3.60;2.95;;;9.90;63.20;;;;;;4983691;28;20050;-48
2022/09/30 00:50:24;;;;;;;2.83;2.63;;;10.00;63.30;;;;;;4975385;28;20039;-46
2022/09/30 00:53:04;;;;;;;3.28;2.97;;;9.90;63.20;;;;;;4976762;28;20423;-46
2022/09/30 00:55:38;;;;;;;4.03;3.00;;;9.90;62.80;;;;;;4976785;28;20042;-45
2022/09/30 00:58:10;;;;;;;3.20;2.88;;;9.90;62.80;;;;;;4974493;28;20053;-48
2022/09/30 01:00:40;;;;;;;4.07;3.03;;;9.90;62.90;;;;;;4978304;28;20038;-47
2022/09/30 01:03:07;;;;;;;6.15;2.60;;;9.90;62.80;;;;;;4984145;28;20046;-46
2022/09/30 01:05:35;;;;;;;3.17;2.70;;;9.80;62.80;;;;;;4993716;28;20050;-46
2022/09/30 01:08:05;;;;;;;4.70;3.00;;;9.80;63.00;;;;;;4980538;28;20070;-49
2022/09/30 01:10:36;;;;;;;3.63;3.30;;;9.80;63.00;;;;;;4975786;28;20050;-49
2022/09/30 01:13:03;;;;;;;3.35;2.55;;;9.80;62.90;;;;;;4983775;28;20281;-47
2022/09/30 01:15:52;;;;;;;5.10;2.75;;;9.80;63.00;;;;;;4981344;28;20053;-46
2022/09/30 01:18:44;;;;;;;4.60;2.60;;;9.70;63.20;;;;;;4970228;28;20550;-47
2022/09/30 01:22:13;;;;;;;3.20;2.85;;;9.70;63.30;;;;;;4987075;28;20058;-48
2022/09/30 01:25:10;;;;;;;3.28;2.67;;;9.70;63.50;;;;;;4898254;29;20048;-46
2022/09/30 01:27:49;;;;;;;2.92;2.40;;;9.70;63.20;;;;;;4977575;28;20053;-47
2022/09/30 01:30:44;;;;;;;6.57;2.40;;;9.70;63.10;;;;;;4985077;28;20045;-49
2022/09/30 01:33:31;;;;;;;4.30;3.28;;;9.70;63.30;;;;;;4985356;28;20410;-46
2022/09/30 01:36:33;;;;;;;5.80;2.42;;;9.60;63.10;;;;;;4993370;28;20066;-47
2022/09/30 01:39:41;;;;;;;3.30;2.67;;;9.60;63.30;;;;;;4976109;28;20050;-48
2022/09/30 01:42:24;;;;;;;3.70;2.83;;;9.60;63.30;;;;;;4944275;29;20047;-47
2022/09/30 01:45:15;;;;;;;5.78;3.85;;;9.50;63.00;;;;;;4984027;28;20053;-47
2022/09/30 01:48:23;;;;;;;4.88;2.97;;;9.50;63.30;;;;;;4969702;28;20369;-47
2022/09/30 01:51:07;;;;;;;4.03;3.13;;;9.50;63.20;;;;;;4980116;28;20054;-46
2022/09/30 01:53:40;;;;;;;3.63;3.33;;;9.40;63.20;;;;;;4954128;29;20051;-46
2022/09/30 01:56:12;;;;;;;4.10;3.13;;;9.40;63.00;;;;;;4960165;28;20080;-45
2022/09/30 01:58:50;;;;;;;3.00;2.80;;;9.40;63.00;;;;;;4986820;28;20494;-46
2022/09/30 02:01:26;;;;;;;3.90;3.60;;;9.40;63.10;;;;;;4984513;28;20052;-46
2022/09/30 02:04:03;;;;;;;3.58;2.90;;;9.40;63.30;;;;;;4989454;28;20053;-47
2022/09/30 02:06:46;;;;;;;4.13;3.55;;;9.40;63.20;;;;;;4973949;28;20038;-46
2022/09/30 02:09:29;;;;;;;4.10;3.70;;;9.30;63.30;;;;;;4985043;28;20039;-47
2022/09/30 02:12:03;;;;;;;5.80;3.40;;;9.30;63.20;;;;;;4990131;28;20134;-45
2022/09/30 02:14:38;;;;;;;4.10;3.70;;;9.30;63.20;;;;;;4985659;28;20049;-48
2022/09/30 02:17:14;;;;;;;5.40;3.92;;;9.30;63.30;;;;;;4980670;28;20046;-46
2022/09/30 02:20:03;;;;;;;3.78;3.38;;;9.30;63.30;;;;;;4992650;28;20141;-47
2022/09/30 02:23:07;;;;;;;5.43;3.15;;;9.30;63.30;;;;;;4985819;28;20043;-47
2022/09/30 02:25:42;;;;;;;3.53;3.22;;;9.20;63.60;;;;;;4972462;28;20039;-47
2022/09/30 02:28:16;;;;;;;4.07;3.72;;;9.20;63.20;;;;;;4982881;28;20122;-46
2022/09/30 02:30:46;;;;;;;4.43;3.75;;;9.20;63.20;;;;;;4987627;28;20070;-46
2022/09/30 02:33:20;;;;;;;3.67;3.38;;;9.20;63.20;;;;;;4992454;28;20118;-46
2022/09/30 02:35:53;;;;;;;4.22;3.60;;;9.10;63.20;;;;;;4976913;28;20043;-46
2022/09/30 02:38:29;;;;;;;3.92;3.58;;;9.10;63.30;;;;;;4979612;28;20149;-47
2022/09/30 02:41:01;;;;;;;5.30;3.63;;;9.10;63.50;;;;;;4994167;23;20074;-51
2022/09/30 02:43:28;;;;;;;4.07;3.67;;;9.10;63.30;;;;;;4984802;28;20046;-48
2022/09/30 02:46:19;;;;;;;4.55;3.63;;;9.10;63.30;;;;;;4988198;28;20038;-51
2022/09/30 02:49:09;;;;;;;4.03;3.67;;;9.10;63.60;;;;;;4977033;28;20123;-51
2022/09/30 02:51:55;;;;;;;5.63;3.33;;;9.10;63.60;;;;;;4959842;28;20110;-49
2022/09/30 02:54:48;;;;;;;4.28;3.88;;;9.00;63.60;;;;;;4954994;28;20040;-47
2022/09/30 02:57:18;;;;;;;;;;;9.00;63.60;;;;;;4955793;28;20057;-51
2022/09/30 02:59:51;;;;;;;4.22;3.67;;;9.00;63.60;;;;;;4967473;28;19927;-52
2022/09/30 03:02:20;;;;;;;;;;;9.00;63.10;;;;;;4958401;28;20533;-51
2022/09/30 03:04:48;;;;;;;3.58;3.28;;;9.00;63.50;;;;;;4958639;28;19961;-48
2022/09/30 03:07:15;;;;;;;4.22;3.92;;;9.00;62.90;;;;;;4971439;28;20043;-46
2022/09/30 03:09:43;;;;;;;5.88;4.00;;;8.90;63.20;;;;;;4962959;28;20043;-48
2022/09/30 03:12:24;;;;;;;5.47;4.15;;;8.90;63.40;;;;;;4966162;28;20047;-46
2022/09/30 03:15:13;;;;;;;4.95;4.45;;;8.90;63.80;;;;;;4960054;28;20043;-46
2022/09/30 03:18:22;;;;;;;4.60;4.20;;;8.90;64.00;;;;;;4960824;28;20411;-49
2022/09/30 03:21:08;;;;;;;4.38;4.03;;;8.90;64.20;;;;;;4935877;28;20063;-46
2022/09/30 03:23:59;;;;;;;6.78;4.90;;;8.90;64.00;;;;;;4961235;28;20068;-48
2022/09/30 03:26:36;;;;;;;5.18;4.68;;;8.90;64.00;;;;;;4958431;28;20439;-50
2022/09/30 03:29:13;;;;;;;5.40;4.10;;;8.90;64.00;;;;;;4972341;28;20062;-52
2022/09/30 03:31:59;;;;;;;5.55;4.50;;;8.80;63.90;;;;;;4962809;28;20043;-47
2022/09/30 03:34:36;;;;;;;5.50;4.88;;;8.80;64.30;;;;;;4959567;28;20054;-50
2022/09/30 03:37:16;;;;;;;6.65;4.72;;;8.80;63.90;;;;;;4969895;28;20046;-49
2022/09/30 03:39:54;;;;;;;5.03;4.53;;;8.80;64.30;;;;;;4968156;28;20054;-46
2022/09/30 03:42:39;;;;;;;6.20;4.82;;;8.80;64.40;;;;;;4972203;28;20039;-48
2022/09/30 03:45:32;;;;;;;5.47;4.97;;;8.80;64.80;;;;;;4963631;28;20519;-46
2022/09/30 03:48:03;;;;;;;5.70;5.20;;;8.80;65.00;;;;;;4969756;28;20043;-46
2022/09/30 03:50:32;;;;;;;5.65;5.03;;;8.80;64.50;;;;;;4969199;28;20039;-46
2022/09/30 03:53:09;;;;;;;5.30;4.67;;;8.80;64.40;;;;;;4963422;28;20471;-49
2022/09/30 03:55:52;;;;;;;8.52;5.68;;;8.80;64.50;;;;;;4971875;28;20407;-46
2022/09/30 03:58:23;;;;;;;5.30;4.80;;;8.80;64.50;;;;;;4957943;28;20109;-51
2022/09/30 04:00:55;;;;;;;4.93;4.43;;;8.80;64.30;;;;;;4967395;28;20051;-51
2022/09/30 04:03:32;;;;;;;4.63;4.22;;;8.80;64.30;;;;;;4956362;28;20062;-51
2022/09/30 04:05:59;;;;;;;5.47;4.97;;;8.80;64.20;;;;;;4970472;28;20055;-50
2022/09/30 04:08:26;;;;;;;4.45;4.05;;;8.80;64.10;;;;;;4964899;28;20047;-50
2022/09/30 04:11:02;;;;;;;6.63;4.55;;;8.80;64.10;;;;;;4960939;28;20036;-49
2022/09/30 04:13:30;;;;;;;5.55;5.00;;;8.80;64.10;;;;;;4969978;28;20166;-51
2022/09/30 04:15:57;;;;;;;8.20;4.95;;;8.80;64.10;;;;;;4957025;28;20431;-47
2022/09/30 04:18:28;;;;;;;5.70;4.95;;;8.70;64.10;;;;;;4967489;28;20041;-47
2022/09/30 04:21:03;;;;;;;4.60;4.20;;;8.70;64.10;;;;;;4965104;28;20069;-49
2022/09/30 04:23:34;;;;;;;5.47;4.97;;;8.70;64.00;;;;;;4959968;28;20496;-47
2022/09/30 04:26:04;;;;;;;8.10;5.13;;;8.70;63.90;;;;;;4957178;28;20050;-52
2022/09/30 04:28:31;;;;;;;5.65;4.57;;;8.70;63.90;;;;;;4972681;28;20619;-47
2022/09/30 04:30:59;;;;;;;6.15;4.63;;;8.60;63.90;;;;;;4967231;28;20123;-51
2022/09/30 04:33:28;;;;;;;4.78;4.22;;;8.60;64.00;;;;;;4975313;28;20049;-50
2022/09/30 04:35:56;;;;;;;5.35;4.82;;;8.60;64.00;;;;;;4970614;28;20403;-51
2022/09/30 04:38:28;;;;;;;4.95;4.45;;;8.60;64.00;;;;;;4965920;28;20049;-51
2022/09/30 04:40:54;;;;;;;7.18;6.07;;;8.60;64.00;;;;;;4949599;28;20062;-49
2022/09/30 04:43:22;;;;;;;7.53;6.07;;;8.50;64.20;;;;;;4974954;28;20051;-46
2022/09/30 04:45:57;;;;;;;6.93;5.68;;;8.60;64.50;;;;;;4970161;28;20413;-47
2022/09/30 04:48:30;;;;;;;6.70;6.13;;;8.50;64.60;;;;;;4963471;28;20027;-51
2022/09/30 04:50:58;;;;;;;6.72;6.13;;;8.50;64.70;;;;;;4971881;28;20047;-49
2022/09/30 04:53:27;;;;;;;9.48;6.15;;;8.50;64.90;;;;;;4953271;28;20046;-50
2022/09/30 04:56:01;;;;;;;6.75;5.97;;;8.50;64.90;;;;;;4959013;28;20522;-49
2022/09/30 04:58:28;;;;;;;7.13;5.82;;;8.50;65.10;;;;;;4963886;28;20047;-48
2022/09/30 05:01:05;;;;;;;6.18;5.40;;;8.50;64.90;;;;;;4972033;28;20125;-48
2022/09/30 05:03:35;;;;;;;7.20;5.57;;;8.50;64.80;;;;;;4972398;28;20108;-49
2022/09/30 05:06:03;;;;;;;7.15;5.90;;;8.50;64.60;;;;;;4959483;28;20090;-47
2022/09/30 05:08:33;;;;;;;7.60;6.55;;;8.50;64.70;;;;;;4966579;28;20109;-49
2022/09/30 05:11:03;;;;;;;7.25;5.75;;;8.50;64.70;;;;;;4953517;28;20689;-52
2022/09/30 05:13:33;;;;;;;6.32;5.72;;;8.50;64.80;;;;;;4962726;28;20038;-47
2022/09/30 05:16:01;;;;;;;6.38;5.60;;;8.50;64.70;;;;;;4957179;28;20044;-47
2022/09/30 05:18:28;;;;;;;6.10;5.50;;;8.50;64.70;;;;;;4963135;28;20113;-47
2022/09/30 05:20:56;;;;;;;8.10;6.28;;;8.50;64.80;;;;;;4961782;28;20074;-47
2022/09/30 05:23:24;;;;;;;6.75;6.03;;;8.40;64.90;;;;;;4965506;28;20050;-51
2022/09/30 05:25:51;;;;;;;6.07;5.47;;;8.50;65.70;;;;;;4963203;28;20039;-49
2022/09/30 05:28:19;;;;;;;7.97;6.53;;;8.40;65.00;;;;;;4955159;29;20562;-50
2022/09/30 05:30:53;;;;;;;8.55;6.47;;;8.50;65.10;;;;;;4955907;28;20098;-49
2022/09/30 05:33:19;;;;;;;7.18;6.22;;;8.40;65.00;;;;;;4954434;28;20050;-52
2022/09/30 05:35:46;;;;;;;7.97;6.07;;;8.40;64.90;;;;;;4952892;28;20047;-49
2022/09/30 05:38:13;;;;;;;7.90;6.53;;;8.50;65.00;;;;;;4961468;28;20551;-50
2022/09/30 05:40:39;;;;;;;6.80;6.10;;;8.50;65.10;;;;;;4952204;29;20061;-49
2022/09/30 05:43:06;;;;;;;8.15;6.10;;;8.50;65.00;;;;;;4954814;28;20491;-50
2022/09/30 05:45:33;;;;;;;7.90;6.88;;;8.40;65.00;;;;;;4959221;28;20753;-53
2022/09/30 05:48:01;;;;;;;7.22;6.28;;;8.40;64.90;;;;;;4959138;28;20438;-52
2022/09/30 05:50:27;;;;;;;7.63;6.80;;;8.40;65.00;;;;;;4953800;28;20407;-50
2022/09/30 05:52:56;;;;;;;7.13;5.88;;;8.40;65.20;;;;;;4958097;28;20040;-52
2022/09/30 05:55:23;;;;;;;10.05;6.43;;;8.40;65.30;;;;;;4959700;28;20098;-52
2022/09/30 05:57:51;;;;;;;8.15;7.05;;;8.40;65.40;;;;;;4952696;28;20054;-52
2022/09/30 06:00:18;;;;;;;9.38;6.47;;;8.50;65.50;;;;;;4966161;28;20557;-49
2022/09/30 06:02:49;;;;;;;7.95;7.18;;;8.50;65.60;;;;;;4962607;28;20121;-52
2022/09/30 06:05:16;;;;;;;8.20;6.28;;;8.50;65.60;;;;;;4954345;28;20039;-53
2022/09/30 06:07:43;;;;;;;10.30;6.97;;;8.50;65.60;;;;;;4954762;28;20093;-52
2022/09/30 06:10:11;;;;;;;7.53;6.57;;;8.50;65.70;;;;;;4958998;28;20419;-51
2022/09/30 06:12:38;;;;;;;10.35;7.13;;;8.50;65.80;;;;;;4959402;28;20039;-52
2022/09/30 06:15:05;;;;;;;7.63;6.82;;;8.50;66.00;;;;;;4963080;28;20046;-51
2022/09/30 06:17:33;;;;;;;10.38;8.18;;;8.60;66.20;;;;;;4961404;28;20047;-52
2022/09/30 06:20:01;;;;;;;7.95;6.95;;;8.60;66.40;;;;;;4962822;28;20039;-49
2022/09/30 06:22:27;;;;;;;7.80;6.78;;;8.60;66.50;;;;;;4968611;28;20043;-52
2022/09/30 06:24:54;;;;;;;9.45;7.40;;;8.70;66.60;;;;;;4956823;28;20043;-49
2022/09/30 06:27:21;;;;;;;8.98;7.70;;;8.70;66.80;;;;;;4955315;28;20046;-48
2022/09/30 06:29:48;;;;;;;8.38;7.40;;;8.70;66.80;;;;;;4969098;28;20495;-53
2022/09/30 06:32:15;;;;;;;8.77;7.88;;;8.80;67.00;;;;;;4964992;28;20062;-53
2022/09/30 06:34:43;;;;;;;11.45;8.27;;;8.80;67.00;;;;;;4959971;28;20057;-51
2022/09/30 06:37:14;;;;;;;10.73;9.20;;;8.80;67.20;;;;;;4955290;28;20074;-51
2022/09/30 06:39:41;;;;;;;12.73;9.18;;;8.90;67.60;;;;;;4964349;28;20046;-51
2022/09/30 06:42:08;;;;;;;9.57;8.63;;;8.90;67.70;;;;;;4963388;28;20047;-53
2022/09/30 06:44:34;;;;;;;9.82;8.80;;;9.00;67.90;;;;;;4962001;28;20047;-50
2022/09/30 06:47:15;;;;;;;9.57;8.63;;;9.00;67.80;;;;;;4962812;28;20049;-52
2022/09/30 06:49:51;;;;;;;11.75;8.38;;;9.10;67.80;;;;;;4953703;28;20039;-49
2022/09/30 06:52:19;;;;;;;10.73;8.68;;;9.20;67.80;;;;;;4964970;28;20073;-48
2022/09/30 06:54:45;;;;;;;11.82;8.95;;;9.20;67.80;;;;;;4972625;28;20426;-52
2022/09/30 06:57:12;;;;;;;12.05;9.35;;;9.20;68.00;;;;;;4961349;28;20053;-50
2022/09/30 06:59:39;;;;;;;10.60;9.25;;;9.30;68.10;;;;;;4949235;29;20110;-48
2022/09/30 07:02:07;;;;;;;12.65;9.13;;;9.30;68.10;;;;;;4971000;28;20054;-50
2022/09/30 07:04:34;;;;;;;12.73;9.88;;;9.40;68.20;;;;;;4960648;28;20471;-50
2022/09/30 07:07:01;;;;;;;14.55;11.27;;;9.40;68.30;;;;;;4958485;28;20554;-52
2022/09/30 07:09:28;;;;;;;14.07;10.95;;;9.50;68.70;;;;;;4965854;28;20045;-53
2022/09/30 07:11:55;;;;;;;18.83;13.35;;;9.60;69.20;;;;;;4972547;28;20050;-53
2022/09/30 07:14:22;;;;;;;16.13;12.93;;;9.60;69.60;;;;;;4965626;28;20043;-53
2022/09/30 07:16:52;;;;;;;16.67;13.18;;;9.70;69.90;;;;;;4959624;28;20038;-51
2022/09/30 07:19:21;;;;;;;16.38;12.77;;;9.70;70.10;;;;;;4962707;28;20049;-53
2022/09/30 07:21:49;;;;;;;19.35;13.32;;;9.80;70.30;;;;;;4954468;28;20034;-53
2022/09/30 07:24:16;;;;;;;16.30;13.60;;;9.90;71.20;;;;;;4962754;28;20409;-53
2022/09/30 07:26:46;;;;;;;16.38;14.10;;;10.00;70.70;;;;;;4956970;28;20090;-48
2022/09/30 07:29:12;;;;;;;18.30;15.40;;;10.00;70.90;;;;;;4956640;28;20039;-51
2022/09/30 07:31:40;;;;;;;19.52;14.75;;;10.10;71.10;;;;;;4972555;28;20430;-50
2022/09/30 07:34:09;;;;;;;18.67;15.30;;;10.20;71.30;;;;;;4957558;28;20035;-49
2022/09/30 07:36:38;;;;;;;16.70;14.68;;;10.20;71.60;;;;;;4944882;28;20057;-49
2022/09/30 07:39:07;;;;;;;19.70;15.32;;;10.30;71.60;;;;;;4964190;28;20117;-52
2022/09/30 07:41:37;;;;;;;22.35;16.92;;;10.40;71.80;;;;;;4969548;28;20407;-53
2022/09/30 07:44:07;;;;;;;22.17;17.55;;;10.50;71.90;;;;;;4957125;28;20043;-50
2022/09/30 07:46:37;;;;;;;20.25;15.73;;;10.50;72.00;;;;;;4966096;28;20039;-52
2022/09/30 07:49:11;;;;;;;18.58;15.70;;;10.60;72.00;;;;;;4967342;28;20046;-53
2022/09/30 07:51:40;;;;;;;18.92;15.80;;;10.70;72.00;;;;;;4952794;28;20047;-53
2022/09/30 07:54:13;;;;;;;25.83;16.42;;;10.70;72.70;;;;;;4962272;28;20815;-53
2022/09/30 07:56:42;;;;;;;19.85;16.25;;;10.80;72.20;;;;;;4959839;28;20047;-50
2022/09/30 07:59:31;;;;;;;22.27;16.35;;;10.90;72.20;;;;;;4958855;28;20491;-53
2022/09/30 08:01:57;;;;;;;21.27;17.17;;;10.90;72.00;;;;;;4963328;28;20039;-52
2022/09/30 08:04:26;;;;;;;18.83;16.02;;;11.00;72.10;;;;;;4961913;28;20533;-52
2022/09/30 08:06:59;;;;;;;20.20;16.45;;;11.00;72.30;;;;;;4946821;28;20384;-51
2022/09/30 08:09:27;;;;;;;18.20;16.08;;;11.10;72.70;;;;;;4966596;28;20042;-51
2022/09/30 08:11:55;;;;;;;23.48;17.13;;;11.20;72.50;;;;;;4961228;28;20043;-53
2022/09/30 08:14:24;;;;;;;20.75;16.17;;;11.20;72.50;;;;;;4965555;28;20066;-53
2022/09/30 08:16:52;;;;;;;20.80;16.75;;;11.30;72.50;;;;;;4959081;28;20042;-53
2022/09/30 08:19:22;;;;;;;20.40;16.77;;;11.40;72.60;;;;;;4951896;28;20043;-54
2022/09/30 08:21:50;;;;;;;19.63;15.70;;;11.40;72.70;;;;;;4956416;28;20043;-52
2022/09/30 08:24:16;;;;;;;19.73;14.88;;;11.50;72.70;;;;;;4960063;28;20048;-52
2022/09/30 08:26:43;;;;;;;19.80;15.50;;;11.60;72.60;;;;;;4952224;29;20040;-53
2022/09/30 08:29:12;;;;;;;17.95;14.57;;;11.60;72.50;;;;;;4955349;28;20049;-53
2022/09/30 08:31:46;;;;;;;18.58;15.23;;;11.70;72.40;;;;;;4966594;28;20043;-53
2022/09/30 08:34:13;;;;;;;22.05;15.88;;;11.70;72.40;;;;;;4954277;28;20047;-51
2022/09/30 08:36:40;;;;;;;18.05;14.70;;;11.80;72.50;;;;;;4952568;28;20462;-51
2022/09/30 08:39:09;;;;;;;22.08;14.70;;;11.80;72.60;;;;;;4964733;28;20049;-52
2022/09/30 08:42:11;;;;;;;21.35;15.38;;;11.90;73.20;;;;;;4954108;28;20468;-52
2022/09/30 08:45:25;;;;;;;17.45;14.93;;;12.00;73.40;;;;;;4952540;28;20419;-53
2022/09/30 08:48:19;;;;;;;16.25;13.27;;;12.10;73.80;;;;;;4961669;28;20579;-53
2022/09/30 08:51:01;;;;;;;17.83;13.93;;;12.20;73.30;;;;;;4949895;28;20043;-53
2022/09/30 08:53:30;;;;;;;;;;;12.20;72.90;;;;;;4980919;23;20039;-46
2022/09/30 08:56:01;;;;;;;17.23;12.15;;;12.30;73.30;;;;;;4988628;28;19928;-46
2022/09/30 08:58:43;;;;;;;14.98;12.85;;;12.40;71.90;;;;;;4990380;28;20549;-46
2022/09/30 09:01:19;;;;;;;18.15;14.35;;;12.40;72.40;;;;;;4990930;28;20050;-46
2022/09/30 09:03:46;;;;;;;16.55;14.70;;;12.50;72.30;;;;;;4995334;28;20054;-45
2022/09/30 09:06:21;;;;;;;16.95;13.65;;;12.60;72.50;;;;;;5006550;28;20454;-45
2022/09/30 09:08:57;;;;;;;17.25;14.43;;;12.60;72.50;;;;;;4994264;28;20034;-45
2022/09/30 09:11:57;;;;;;;17.60;13.18;;;12.70;72.40;;;;;;4986824;28;20051;-45
2022/09/30 09:14:37;;;;;;;16.85;13.25;;;12.80;72.90;;;;;;4992970;28;20056;-46
2022/09/30 09:17:21;;;;;;;16.70;14.20;;;12.90;73.00;;;;;;4992313;28;20046;-46
2022/09/30 09:20:02;;;;;;;16.63;13.05;;;12.90;72.60;;;;;;4993555;28;20042;-47
2022/09/30 09:22:30;;;;;;;15.98;13.75;;;13.00;72.20;;;;;;4984383;28;20050;-48
2022/09/30 09:25:02;;;;;;;16.73;12.82;;;13.10;72.20;;;;;;4975501;28;20107;-47
2022/09/30 09:27:53;;;;;;;14.35;12.85;;;13.10;72.20;;;;;;4991817;28;20041;-46
2022/09/30 09:30:22;;;;;;;18.10;13.95;;;13.20;72.80;;;;;;4993212;28;20034;-47
2022/09/30 09:32:54;;;;;;;15.18;12.45;;;13.30;72.30;;;;;;4992959;28;20046;-50
2022/09/30 09:35:48;;;;;;;15.60;12.80;;;13.40;72.20;;;;;;4984506;28;20042;-50
2022/09/30 09:38:34;;;;;;;15.05;12.50;;;13.50;73.00;;;;;;4985424;28;20054;-50
2022/09/30 09:41:13;;;;;;;13.93;11.82;;;13.50;72.10;;;;;;4991370;28;20042;-49
2022/09/30 09:43:51;;;;;;;15.65;13.18;;;13.60;71.80;;;;;;4992955;28;20043;-47
2022/09/30 09:46:33;;;;;;;17.25;12.93;;;13.70;72.00;;;;;;4993463;28;20038;-50
2022/09/30 09:49:23;;;;;;;15.98;12.40;;;13.80;72.20;;;;;;4992667;28;20528;-48
2022/09/30 09:52:05;;;;;;;14.65;11.57;;;13.90;72.20;;;;;;4993033;28;20125;-50
2022/09/30 09:54:40;;;;;;;14.88;11.90;;;13.90;72.00;;;;;;4986102;28;20039;-46
2022/09/30 09:57:09;;;;;;;15.88;12.93;;;14.00;71.20;;;;;;4993038;28;20761;-50
2022/09/30 09:59:52;;;;;;;14.00;11.27;;;14.10;71.00;;;;;;4993492;28;20073;-48
2022/09/30 10:02:28;;;;;;;14.10;10.55;;;14.10;70.90;;;;;;4975280;28;20050;-51
2022/09/30 10:05:00;;;;;;;13.07;11.68;;;14.20;71.10;;;;;;4990766;28;20050;-46
2022/09/30 10:07:29;;;;;;;14.02;11.50;;;14.30;70.70;;;;;;4993001;28;20046;-50
2022/09/30 10:10:29;;;;;;;14.57;11.25;;;14.40;70.80;;;;;;4993353;28;20461;-50
2022/09/30 10:12:56;;;;;;;13.02;10.88;;;14.50;71.50;;;;;;4948682;28;20096;-48
2022/09/30 10:15:25;;;;;;;12.98;10.43;;;14.50;70.60;;;;;;4992100;28;20042;-46
2022/09/30 10:17:57;;;;;;;13.80;11.13;;;14.60;70.30;;;;;;4974482;28;20113;-46
2022/09/30 10:20:30;;;;;;;13.38;10.75;;;14.70;70.90;;;;;;4991628;28;20057;-49
2022/09/30 10:23:18;;;;;;;14.02;10.43;;;14.80;70.40;;;;;;4991042;28;20038;-47
2022/09/30 10:25:55;;;;;;;11.40;9.93;;;14.90;70.10;;;;;;4992455;28;20053;-47
2022/09/30 10:28:24;;;;;;;11.00;9.68;;;14.90;69.90;;;;;;4984112;28;20058;-47
2022/09/30 10:31:00;;;;;;;10.82;9.68;;;15.00;69.50;;;;;;4990271;28;20046;-49
2022/09/30 10:33:33;;;;;;;11.18;8.90;;;15.10;68.90;;;;;;4985293;28;20050;-46
2022/09/30 10:36:11;;;;;;;;;;;15.20;69.40;;;;;;4973656;28;20050;-48
2022/09/30 10:38:57;;;;;;;10.32;9.10;;;15.40;69.50;;;;;;4989425;28;19964;-46
2022/09/30 10:41:32;;;;;;;9.35;8.23;;;15.50;68.30;;;;;;4988946;28;20046;-46
2022/09/30 10:44:02;;;;;;;9.88;8.85;;;15.60;68.20;;;;;;5003279;28;20049;-49
2022/09/30 10:46:37;;;;;;;8.85;7.88;;;15.80;68.50;;;;;;4988576;28;20042;-50
2022/09/30 10:49:35;;;;;;;10.43;8.20;;;15.90;68.20;;;;;;4990322;28;20038;-47
2022/09/30 10:52:03;;;;;;;9.82;7.38;;;16.10;66.90;;;;;;4989493;28;20034;-47
2022/09/30 10:54:39;;;;;;;7.65;6.85;;;16.10;66.70;;;;;;4988420;28;20053;-48
2022/09/30 10:57:25;;;;;;;8.15;7.22;;;16.20;65.80;;;;;;4989306;28;20148;-49
2022/09/30 11:00:07;;;;;;;6.97;6.28;;;16.30;65.70;;;;;;4991058;28;20073;-50
2022/09/30 11:02:43;;;;;;;9.57;7.38;;;16.40;65.60;;;;;;4971169;28;20043;-48
2022/09/30 11:05:32;;;;;;;6.47;5.78;;;16.50;65.50;;;;;;4986405;28;20152;-49
2022/09/30 11:08:14;;;;;;;6.85;5.78;;;16.60;66.10;;;;;;4989590;28;20053;-53
2022/09/30 11:10:55;;;;;;;6.53;5.47;;;16.70;65.30;;;;;;4989460;28;20034;-50
2022/09/30 11:13:43;;;;;;;6.05;4.93;;;16.80;64.60;;;;;;4989057;28;20541;-50
2022/09/30 11:16:26;;;;;;;6.88;5.80;;;16.90;63.90;;;;;;4988570;28;20085;-48
2022/09/30 11:19:17;;;;;;;5.57;4.97;;;17.00;63.00;;;;;;4989098;28;20648;-49
2022/09/30 11:22:24;;;;;;;5.45;4.53;;;17.00;62.60;;;;;;4989841;28;20514;-50
2022/09/30 11:24:53;;;;;;;5.53;4.95;;;17.00;62.60;;;;;;4988528;28;20149;-48
2022/09/30 11:27:27;;;;;;;6.05;5.45;;;17.00;63.20;;;;;;4990780;28;20035;-48
2022/09/30 11:30:12;;;;;;;5.18;4.70;;;17.10;63.00;;;;;;4989011;28;20586;-49
2022/09/30 11:33:01;;;;;;;5.35;4.47;;;17.10;63.60;;;;;;4990309;28;20042;-49
2022/09/30 11:35:54;;;;;;;4.55;4.25;;;17.10;62.80;;;;;;4987038;28;20049;-51
2022/09/30 11:38:40;;;;;;;4.43;4.05;;;17.20;62.90;;;;;;4991027;28;20085;-51
2022/09/30 11:41:25;;;;;;;5.22;4.30;;;17.30;61.80;;;;;;4991251;28;20030;-52
2022/09/30 11:44:26;;;;;;;6.18;3.80;;;17.40;62.30;;;;;;4998708;28;20445;-51
2022/09/30 11:47:08;;;;;;;4.65;4.07;;;17.60;61.90;;;;;;4994162;28;20118;-48
2022/09/30 11:49:47;;;;;;;5.65;3.40;;;17.70;61.50;;;;;;5001765;28;20105;-51
2022/09/30 11:52:31;;;;;;;4.55;3.83;;;17.80;60.80;;;;;;4990915;28;20122;-52
2022/09/30 11:55:07;;;;;;;3.70;3.38;;;18.00;60.80;;;;;;4991129;28;20556;-50
2022/09/30 11:58:01;;;;;;;5.55;3.60;;;18.10;60.50;;;;;;4998161;28;20069;-48
2022/09/30 12:00:53;;;;;;;3.90;3.42;;;18.20;59.00;;;;;;4990595;28;20078;-49
2022/09/30 12:03:20;;;;;;;;;;;18.30;58.90;;;;;;4988692;28;20070;-50
2022/09/30 12:05:50;;;;;;;5.05;4.10;;;18.50;60.10;;;;;;4985551;28;19929;-52
2022/09/30 12:08:23;;;;;;;3.60;3.30;;;18.50;58.60;;;;;;4990465;28;20574;-49
2022/09/30 12:11:02;;;;;;;4.13;3.72;;;18.60;58.00;;;;;;4989011;28;20039;-51
2022/09/30 12:13:35;;;;;;;4.25;3.85;;;18.70;56.90;;;;;;4988705;28;20042;-51
2022/09/30 12:16:07;;;;;;;4.20;3.80;;;18.70;56.90;;;;;;4991372;28;20050;-52
2022/09/30 12:18:39;;;;;;;;;;;18.70;56.30;;;;;;4995587;28;20047;-53
2022/09/30 12:21:21;;;;;;;6.85;3.05;;;18.70;57.40;;;;;;4996298;28;20067;-52
2022/09/30 12:24:01;;;;;;;4.32;3.85;;;18.70;56.30;;;;;;4998619;28;20038;-49
2022/09/30 12:26:31;;;;;;;3.65;3.33;;;18.60;56.30;;;;;;4996819;28;20045;-50
2022/09/30 12:32:18;;;;;;;4.47;2.97;;;18.60;56.40;;;;;;4951276;28;20560;-50
2022/09/30 12:34:53;;;;;;;3.15;2.85;;;18.70;56.90;;;;;;4988320;28;20154;-52
2022/09/30 12:37:27;;;;;;;3.92;3.53;;;18.70;56.20;;;;;;4990538;28;20548;-48
2022/09/30 12:40:21;;;;;;;4.53;3.90;;;18.80;56.00;;;;;;4991653;28;20042;-51
2022/09/30 12:43:04;;;;;;;5.28;4.22;;;18.90;55.50;;;;;;4992738;28;20052;-52
2022/09/30 12:45:36;;;;;;;4.43;3.67;;;19.00;56.40;;;;;;4993171;28;20073;-51
2022/09/30 12:48:09;;;;;;;4.63;4.22;;;19.20;56.10;;;;;;4994283;28;20049;-51
2022/09/30 12:50:51;;;;;;;4.72;4.00;;;19.30;56.00;;;;;;4992836;28;20141;-50
2022/09/30 12:53:29;;;;;;;5.85;4.25;;;19.40;54.60;;;;;;4992929;28;20046;-52
2022/09/30 12:56:25;;;;;;;4.60;4.20;;;19.50;54.10;;;;;;4994358;28;20529;-50
2022/09/30 12:58:52;;;;;;;6.15;3.90;;;19.60;54.20;;;;;;4995791;28;20081;-51
2022/09/30 13:01:28;;;;;;;5.00;3.72;;;19.70;54.10;;;;;;4992048;28;20048;-49
2022/09/30 13:03:58;;;;;;;4.95;3.30;;;19.70;53.30;;;;;;4992450;28;20129;-51
2022/09/30 13:06:46;;;;;;;7.38;3.40;;;19.70;53.70;;;;;;4991113;28;20043;-48
2022/09/30 13:09:15;;;;;;;3.50;3.20;;;19.80;54.00;;;;;;4994351;28;20042;-52
2022/09/30 13:11:45;;;;;;;7.78;4.47;;;19.80;53.90;;;;;;4993099;28;20044;-52
2022/09/30 13:14:23;;;;;;;4.07;3.25;;;19.80;53.60;;;;;;4993827;28;20690;-49
2022/09/30 13:17:07;;;;;;;3.53;2.95;;;19.80;53.60;;;;;;4993647;28;20524;-49
2022/09/30 13:19:39;;;;;;;5.28;3.72;;;19.80;52.90;;;;;;5001751;28;20068;-52
2022/09/30 13:22:18;;;;;;;3.25;2.65;;;19.80;52.90;;;;;;4992237;28;20120;-51
2022/09/30 13:24:57;;;;;;;6.35;3.50;;;19.80;53.00;;;;;;4992898;28;20450;-51
2022/09/30 13:27:33;;;;;;;2.78;2.38;;;19.80;52.50;;;;;;4985204;28;20050;-49
2022/09/30 13:30:21;;;;;;;2.45;2.17;;;19.80;53.20;;;;;;4992121;28;20041;-52
2022/09/30 13:33:01;;;;;;;4.15;2.40;;;19.80;53.70;;;;;;4996255;28;20085;-51
2022/09/30 13:35:36;;;;;;;1.70;1.60;;;19.90;53.60;;;;;;4985828;28;20049;-49